Time;durP1;ratioP1;P1;durP2;ratioP2;P2;SDS_P1;SDS_P2;PMS_P1;PMS_P2;Temp;Humidity;BMP_temperature;BMP_pressure;BME280_temperature;BME280_humidity;BME280_pressure;Samples;Min_cycle;Max_cycle;Signal;HPM_P1;HPM_P2
2024/03/20 00:00:44;;;;;;;14.40;6.50;;;;;;;;;;6154261;23;20045;-82
2024/03/20 00:03:10;;;;;;;14.88;7.15;;;;;;;;;;6125021;23;20049;-81
2024/03/20 00:05:35;;;;;;;15.20;7.03;;;;;;;;;;6150569;23;20013;-81
2024/03/20 00:08:01;;;;;;;19.13;6.97;;;;;;;;;;6147676;23;20024;-81
2024/03/20 00:10:27;;;;;;;15.13;6.60;;;;;;;;;;6127007;23;20008;-82
2024/03/20 00:12:56;;;;;;;12.27;6.15;;;;;;;;;;6147054;23;20008;-80
2024/03/20 00:15:22;;;;;;;11.43;6.03;;;;;;;;;;6177774;23;19993;-81
2024/03/20 00:17:48;;;;;;;11.00;5.45;;;;;;;;;;6199916;23;20032;-81
2024/03/20 00:20:13;;;;;;;10.95;5.65;;;;;;;;;;6149547;23;20020;-81
2024/03/20 00:22:39;;;;;;;12.02;6.43;;;;;;;;;;6205535;23;20008;-81
2024/03/20 00:25:05;;;;;;;10.95;5.82;;;;;;;;;;6152267;23;20057;-81
2024/03/20 00:27:30;;;;;;;12.63;5.53;;;;;;;;;;6202047;23;19997;-80
2024/03/20 00:29:56;;;;;;;14.07;6.47;;;;;;;;;;6175642;23;20100;-81
2024/03/20 00:32:24;;;;;;;13.15;6.72;;;;;;;;;;6148829;23;20069;-81
2024/03/20 00:34:49;;;;;;;12.38;5.97;;;;;;;;;;6173649;23;20005;-81
2024/03/20 00:37:15;;;;;;;10.30;5.50;;;;;;;;;;6124042;23;20013;-81
2024/03/20 00:39:40;;;;;;;10.90;5.28;;;;;;;;;;6124520;23;20036;-81
2024/03/20 00:42:06;;;;;;;9.93;5.30;;;;;;;;;;6150534;23;20083;-80
2024/03/20 00:44:36;;;;;;;12.63;5.53;;;;;;;;;;6128465;23;20453;-80
2024/03/20 00:47:09;;;;;;;10.52;6.22;;;;;;;;;;6153822;23;20001;-81
2024/03/20 00:49:35;;;;;;;12.48;5.60;;;;;;;;;;6131942;23;20005;-81
2024/03/20 00:52:00;;;;;;;11.32;5.70;;;;;;;;;;6155127;23;20005;-82
2024/03/20 00:54:26;;;;;;;10.55;5.28;;;;;;;;;;6154690;23;19997;-82
2024/03/20 00:56:52;;;;;;;12.35;5.72;;;;;;;;;;6133370;23;20009;-81
2024/03/20 00:59:17;;;;;;;13.43;6.07;;;;;;;;;;6135669;23;20072;-80
2024/03/20 01:01:43;;;;;;;11.57;5.55;;;;;;;;;;6135867;23;19993;-82
2024/03/20 01:04:09;;;;;;;12.18;6.07;;;;;;;;;;6134860;23;20012;-81
2024/03/20 01:06:35;;;;;;;14.63;6.18;;;;;;;;;;6134301;23;20005;-81
2024/03/20 01:09:00;;;;;;;13.07;6.05;;;;;;;;;;6156925;23;20017;-80
2024/03/20 01:11:26;;;;;;;13.13;6.25;;;;;;;;;;6170062;23;20331;-80
2024/03/20 01:13:51;;;;;;;11.88;6.03;;;;;;;;;;6143130;23;20005;-80
2024/03/20 01:16:18;;;;;;;10.85;5.78;;;;;;;;;;6165647;23;20009;-80
2024/03/20 01:18:43;;;;;;;12.90;6.13;;;;;;;;;;6115755;23;20012;-81
2024/03/20 01:21:08;;;;;;;14.13;6.68;;;;;;;;;;6192136;23;20001;-80
2024/03/20 01:23:34;;;;;;;12.95;6.20;;;;;;;;;;6115959;23;20075;-81
2024/03/20 01:25:59;;;;;;;16.15;7.25;;;;;;;;;;6168880;23;20280;-81
2024/03/20 01:28:27;;;;;;;13.85;6.20;;;;;;;;;;6165602;23;20012;-80
2024/03/20 01:30:56;;;;;;;11.38;6.03;;;;;;;;;;6165921;23;20005;-80
2024/03/20 01:33:22;;;;;;;14.02;6.20;;;;;;;;;;6167252;23;20012;-80
2024/03/20 01:35:47;;;;;;;15.15;6.60;;;;;;;;;;6118766;23;20016;-81
2024/03/20 01:40:50;;;;;;;15.20;6.70;;;;;;;;;;6157465;23;20025;-82
2024/03/20 01:43:21;;;;;;;9.65;5.78;;;;;;;;;;6157317;23;19997;-82
2024/03/20 01:45:50;;;;;;;10.93;6.55;;;;;;;;;;6126742;23;20017;-83
2024/03/20 01:48:16;;;;;;;11.65;5.95;;;;;;;;;;6103502;23;20002;-83
2024/03/20 01:50:48;;;;;;;12.52;6.43;;;;;;;;;;6152866;23;20014;-83
2024/03/20 01:53:20;;;;;;;13.98;6.82;;;;;;;;;;6126734;23;20017;-82
2024/03/20 01:55:48;;;;;;;10.05;5.93;;;;;;;;;;6100966;23;20001;-82
2024/03/20 01:58:14;;;;;;;11.52;5.97;;;;;;;;;;6096671;23;20030;-82
2024/03/20 02:00:40;;;;;;;13.25;6.50;;;;;;;;;;6096445;23;20016;-82
2024/03/20 02:03:10;;;;;;;12.52;6.32;;;;;;;;;;6101062;23;20012;-82
2024/03/20 02:05:38;;;;;;;11.82;6.65;;;;;;;;;;6126156;23;20014;-82
2024/03/20 02:08:04;;;;;;;11.40;5.82;;;;;;;;;;6101408;23;20013;-82
2024/03/20 02:10:30;;;;;;;13.15;6.55;;;;;;;;;;6126536;23;20030;-82
2024/03/20 02:13:05;;;;;;;13.27;6.43;;;;;;;;;;6102501;23;20018;-82
2024/03/20 02:15:37;;;;;;;15.00;6.45;;;;;;;;;;6125736;23;19990;-82
2024/03/20 02:18:04;;;;;;;12.20;6.20;;;;;;;;;;6126312;23;20009;-82
2024/03/20 02:20:34;;;;;;;12.60;6.07;;;;;;;;;;6099221;23;20021;-82
2024/03/20 02:22:59;;;;;;;12.10;6.15;;;;;;;;;;6128721;23;20017;-82
2024/03/20 02:25:29;;;;;;;11.82;6.00;;;;;;;;;;6152570;23;20014;-82
2024/03/20 02:27:55;;;;;;;11.13;6.05;;;;;;;;;;6102840;23;20014;-82
2024/03/20 02:30:21;;;;;;;13.15;6.25;;;;;;;;;;6147998;23;20444;-83
2024/03/20 02:32:50;;;;;;;9.98;5.88;;;;;;;;;;6119273;23;20375;-82
2024/03/20 02:35:16;;;;;;;11.05;5.78;;;;;;;;;;6069914;23;20065;-82
2024/03/20 02:37:43;;;;;;;11.45;6.43;;;;;;;;;;6116427;23;20411;-82
2024/03/20 02:40:09;;;;;;;10.25;5.90;;;;;;;;;;6090829;23;20037;-82
2024/03/20 02:42:35;;;;;;;10.98;5.82;;;;;;;;;;6093230;23;20013;-82
2024/03/20 02:45:01;;;;;;;12.65;6.20;;;;;;;;;;6116180;23;20026;-82
2024/03/20 02:47:27;;;;;;;13.68;6.35;;;;;;;;;;6091173;23;20010;-82
2024/03/20 02:49:53;;;;;;;12.75;6.43;;;;;;;;;;6113881;23;20017;-82
2024/03/20 02:52:19;;;;;;;13.13;6.72;;;;;;;;;;6089698;23;20401;-82
2024/03/20 02:54:46;;;;;;;15.63;6.55;;;;;;;;;;6114890;23;20040;-82
2024/03/20 02:57:15;;;;;;;20.60;7.00;;;;;;;;;;6117769;23;20090;-82
2024/03/20 02:59:41;;;;;;;14.60;6.28;;;;;;;;;;6096023;23;20014;-82
2024/03/20 03:02:10;;;;;;;13.43;7.10;;;;;;;;;;6097253;23;20014;-82
2024/03/20 03:04:37;;;;;;;12.27;6.20;;;;;;;;;;6121210;23;20424;-82
2024/03/20 03:07:26;;;;;;;14.73;6.53;;;;;;;;;;6118671;23;20013;-82
2024/03/20 03:09:51;;;;;;;;;;;;;;;;;;6122265;23;20010;-82
2024/03/20 03:12:18;;;;;;;14.38;6.70;;;;;;;;;;6098806;23;19965;-81
2024/03/20 03:14:44;;;;;;;11.82;6.40;;;;;;;;;;6098278;23;20013;-82
2024/03/20 03:17:13;;;;;;;12.52;6.55;;;;;;;;;;6124432;23;20037;-82
2024/03/20 03:19:40;;;;;;;15.07;7.15;;;;;;;;;;6097886;23;20042;-82
2024/03/20 03:22:06;;;;;;;12.35;6.93;;;;;;;;;;6098168;23;20010;-82
2024/03/20 03:24:31;;;;;;;13.93;7.03;;;;;;;;;;6098426;23;20009;-83
2024/03/20 03:26:57;;;;;;;12.60;6.93;;;;;;;;;;6096817;23;20006;-82
2024/03/20 03:29:23;;;;;;;13.40;7.00;;;;;;;;;;6123155;23;20006;-82
2024/03/20 03:31:49;;;;;;;12.93;7.00;;;;;;;;;;6125272;23;20005;-82
2024/03/20 03:34:15;;;;;;;14.20;6.72;;;;;;;;;;6125789;23;20006;-82
2024/03/20 03:36:43;;;;;;;13.45;7.47;;;;;;;;;;6124543;23;20014;-81
2024/03/20 03:39:10;;;;;;;11.82;7.65;;;;;;;;;;6096259;23;20017;-82
2024/03/20 03:41:36;;;;;;;14.93;7.10;;;;;;;;;;6090317;23;20037;-81
2024/03/20 03:44:03;;;;;;;13.07;6.78;;;;;;;;;;6147593;23;20010;-81
2024/03/20 03:46:29;;;;;;;11.90;6.93;;;;;;;;;;6099180;23;20006;-82
2024/03/20 03:48:56;;;;;;;12.40;6.90;;;;;;;;;;6102612;23;20010;-83
2024/03/20 03:51:22;;;;;;;13.10;6.65;;;;;;;;;;6105340;23;20021;-82
2024/03/20 03:53:48;;;;;;;11.40;6.88;;;;;;;;;;6104087;23;20459;-82
2024/03/20 03:56:14;;;;;;;15.88;7.88;;;;;;;;;;6103937;23;20078;-82
2024/03/20 03:58:39;;;;;;;16.00;7.93;;;;;;;;;;6126789;23;20016;-83
2024/03/20 04:01:06;;;;;;;14.45;8.10;;;;;;;;;;6117241;23;20010;-83
2024/03/20 04:03:34;;;;;;;14.18;7.30;;;;;;;;;;6089638;23;20063;-82
2024/03/20 04:06:00;;;;;;;17.33;8.13;;;;;;;;;;6090752;23;20018;-82
2024/03/20 04:08:30;;;;;;;14.65;7.60;;;;;;;;;;6119234;23;20351;-82
2024/03/20 04:11:02;;;;;;;14.23;7.65;;;;;;;;;;6122452;23;20325;-83
2024/03/20 04:13:29;;;;;;;18.65;7.53;;;;;;;;;;6122683;23;20010;-83
2024/03/20 04:15:56;;;;;;;15.52;7.57;;;;;;;;;;6122808;23;20038;-83
2024/03/20 04:18:24;;;;;;;11.73;7.13;;;;;;;;;;6091763;23;20014;-83
2024/03/20 04:20:51;;;;;;;14.38;6.78;;;;;;;;;;6088974;23;20456;-82
2024/03/20 04:23:17;;;;;;;12.70;6.90;;;;;;;;;;6112122;23;20016;-82
2024/03/20 04:25:45;;;;;;;13.88;6.60;;;;;;;;;;6088173;23;20014;-82
2024/03/20 04:28:10;;;;;;;14.00;6.47;;;;;;;;;;6089386;23;20065;-82
2024/03/20 04:30:40;;;;;;;17.05;7.93;;;;;;;;;;6089396;23;20017;-82
2024/03/20 04:33:06;;;;;;;15.25;7.40;;;;;;;;;;6092236;23;20006;-82
2024/03/20 04:35:34;;;;;;;14.55;7.63;;;;;;;;;;6091489;23;20017;-82
2024/03/20 04:38:01;;;;;;;15.82;7.20;;;;;;;;;;6115216;23;20013;-82
2024/03/20 04:40:32;;;;;;;14.52;7.22;;;;;;;;;;6117377;23;20017;-82
2024/03/20 04:43:06;;;;;;;16.23;7.37;;;;;;;;;;6121042;23;20037;-82
2024/03/20 04:45:32;;;;;;;16.27;7.00;;;;;;;;;;6098130;23;20006;-82
2024/03/20 04:47:58;;;;;;;14.50;7.75;;;;;;;;;;6097217;23;20009;-83
2024/03/20 04:50:24;;;;;;;16.15;7.72;;;;;;;;;;6119760;23;20061;-82
2024/03/20 04:52:51;;;;;;;15.95;7.30;;;;;;;;;;6120219;23;20013;-81
2024/03/20 04:55:18;;;;;;;12.55;7.07;;;;;;;;;;6098558;23;20006;-82
2024/03/20 04:57:43;;;;;;;17.42;8.93;;;;;;;;;;6096553;23;20009;-83
2024/03/20 05:00:16;;;;;;;13.25;7.05;;;;;;;;;;6144636;23;20006;-83
2024/03/20 05:02:49;;;;;;;15.50;7.22;;;;;;;;;;6120442;23;20010;-83
2024/03/20 05:05:15;;;;;;;16.10;7.82;;;;;;;;;;6119506;23;20010;-83
2024/03/20 05:07:41;;;;;;;14.32;7.32;;;;;;;;;;6094241;23;20037;-83
2024/03/20 05:10:07;;;;;;;15.20;7.50;;;;;;;;;;6094500;23;20121;-83
2024/03/20 05:12:34;;;;;;;15.90;8.07;;;;;;;;;;6096357;23;20037;-82
2024/03/20 05:15:03;;;;;;;15.73;7.57;;;;;;;;;;6120943;23;20014;-83
2024/03/20 05:17:30;;;;;;;13.15;7.85;;;;;;;;;;6123005;23;20005;-83
2024/03/20 05:19:56;;;;;;;13.05;7.95;;;;;;;;;;6097565;23;20010;-83
2024/03/20 05:22:22;;;;;;;15.48;8.15;;;;;;;;;;6097726;23;20037;-83
2024/03/20 05:24:50;;;;;;;17.20;7.82;;;;;;;;;;6120046;23;20010;-83
2024/03/20 05:27:25;;;;;;;15.23;7.95;;;;;;;;;;6096356;23;20006;-82
2024/03/20 05:29:54;;;;;;;14.82;8.02;;;;;;;;;;6120014;23;20002;-83
2024/03/20 05:32:25;;;;;;;15.15;7.75;;;;;;;;;;6118627;23;20019;-83
2024/03/20 05:34:55;;;;;;;15.82;7.20;;;;;;;;;;6098480;23;20009;-83
2024/03/20 05:37:21;;;;;;;19.20;9.60;;;;;;;;;;6099497;23;20045;-83
2024/03/20 05:39:47;;;;;;;31.38;14.25;;;;;;;;;;6098771;23;20340;-83
2024/03/20 05:42:15;;;;;;;15.53;8.03;;;;;;;;;;6120641;23;20009;-82
2024/03/20 05:44:41;;;;;;;13.18;7.57;;;;;;;;;;6095103;23;20062;-83
2024/03/20 05:47:07;;;;;;;14.65;8.07;;;;;;;;;;6117633;23;20018;-81
2024/03/20 05:49:33;;;;;;;20.60;7.90;;;;;;;;;;6120520;23;20006;-83
2024/03/20 05:51:59;;;;;;;17.60;7.88;;;;;;;;;;6143764;23;20002;-82
2024/03/20 05:54:25;;;;;;;16.40;7.00;;;;;;;;;;6095430;23;20014;-82
2024/03/20 05:56:51;;;;;;;14.57;7.97;;;;;;;;;;6121094;23;20010;-83
2024/03/20 05:59:19;;;;;;;23.10;8.57;;;;;;;;;;6121228;23;20010;-82
2024/03/20 06:01:45;;;;;;;17.60;8.43;;;;;;;;;;6119008;23;20009;-82
2024/03/20 06:04:11;;;;;;;17.80;8.38;;;;;;;;;;6116367;23;20252;-82
2024/03/20 06:06:42;;;;;;;15.05;8.23;;;;;;;;;;6116069;23;20001;-81
2024/03/20 06:09:10;;;;;;;16.60;8.10;;;;;;;;;;6137840;23;20010;-82
2024/03/20 06:11:40;;;;;;;18.38;7.82;;;;;;;;;;6112279;23;20338;-82
2024/03/20 06:14:07;;;;;;;20.00;8.30;;;;;;;;;;6109625;23;20057;-82
2024/03/20 06:16:34;;;;;;;16.15;8.23;;;;;;;;;;6089963;23;20073;-82
2024/03/20 06:19:01;;;;;;;14.10;8.43;;;;;;;;;;6111062;23;20013;-82
2024/03/20 06:21:27;;;;;;;17.23;8.50;;;;;;;;;;6091826;23;20017;-82
2024/03/20 06:23:52;;;;;;;14.30;7.17;;;;;;;;;;6096315;23;20006;-82
2024/03/20 06:26:18;;;;;;;15.07;7.68;;;;;;;;;;6100736;23;20002;-82
2024/03/20 06:28:45;;;;;;;18.15;8.57;;;;;;;;;;6094327;23;20033;-82
2024/03/20 06:31:11;;;;;;;13.70;8.05;;;;;;;;;;6120708;23;20005;-82
2024/03/20 06:33:39;;;;;;;16.33;8.60;;;;;;;;;;6092323;23;20009;-82
2024/03/20 06:36:04;;;;;;;18.25;8.15;;;;;;;;;;6114377;23;20006;-82
2024/03/20 06:38:30;;;;;;;15.45;8.40;;;;;;;;;;6090747;23;20136;-82
2024/03/20 06:40:58;;;;;;;18.73;8.73;;;;;;;;;;6066832;23;20014;-82
2024/03/20 06:43:33;;;;;;;19.25;7.80;;;;;;;;;;6070293;23;20017;-82
2024/03/20 06:46:05;;;;;;;14.52;7.65;;;;;;;;;;6089078;23;20010;-82
2024/03/20 06:48:31;;;;;;;14.45;8.18;;;;;;;;;;6089021;23;20058;-82
2024/03/20 06:50:58;;;;;;;18.77;9.70;;;;;;;;;;6062848;23;20007;-82
2024/03/20 06:53:28;;;;;;;21.88;8.18;;;;;;;;;;6043325;23;20460;-82
2024/03/20 06:55:55;;;;;;;17.25;8.10;;;;;;;;;;6086780;23;20017;-81
2024/03/20 06:58:22;;;;;;;26.42;9.35;;;;;;;;;;6084659;23;20015;-82
2024/03/20 07:00:48;;;;;;;16.17;8.10;;;;;;;;;;6085855;23;19997;-81
2024/03/20 07:03:19;;;;;;;22.90;8.68;;;;;;;;;;6089534;23;20007;-82
2024/03/20 07:05:46;;;;;;;20.08;8.35;;;;;;;;;;6062202;23;20045;-82
2024/03/20 07:08:14;;;;;;;16.60;8.55;;;;;;;;;;6059966;23;20014;-83
2024/03/20 07:10:40;;;;;;;16.55;8.25;;;;;;;;;;6056636;23;20017;-83
2024/03/20 07:13:09;;;;;;;20.83;9.30;;;;;;;;;;6077672;23;20002;-82
2024/03/20 07:15:36;;;;;;;16.85;9.23;;;;;;;;;;6054462;23;20038;-83
2024/03/20 07:18:03;;;;;;;26.20;10.32;;;;;;;;;;6080073;23;20042;-81
2024/03/20 07:20:30;;;;;;;26.50;8.27;;;;;;;;;;6057469;23;20014;-82
2024/03/20 07:22:57;;;;;;;15.80;8.60;;;;;;;;;;6107817;23;20021;-81
2024/03/20 07:25:26;;;;;;;24.20;8.40;;;;;;;;;;6058014;23;20037;-81
2024/03/20 07:27:55;;;;;;;17.25;7.72;;;;;;;;;;6037199;23;20017;-81
2024/03/20 07:30:21;;;;;;;18.55;8.30;;;;;;;;;;6059257;23;20010;-81
2024/03/20 08:00:57;;;;;;;15.38;8.75;;;;;;;;;;6164696;23;20108;-82
2024/03/20 08:03:23;;;;;;;16.48;8.10;;;;;;;;;;6113060;23;20072;-82
2024/03/20 08:05:48;;;;;;;15.40;7.88;;;;;;;;;;6111767;23;20009;-82
2024/03/20 08:08:14;;;;;;;19.80;9.75;;;;;;;;;;6111907;23;20014;-82
2024/03/20 08:10:40;;;;;;;20.52;8.80;;;;;;;;;;6134986;23;20010;-81
2024/03/20 08:13:09;;;;;;;16.38;8.60;;;;;;;;;;6107734;23;20006;-82
2024/03/20 08:15:44;;;;;;;15.77;8.80;;;;;;;;;;6107263;23;20017;-82
2024/03/20 08:18:10;;;;;;;19.83;9.70;;;;;;;;;;6136210;23;20010;-82
2024/03/20 08:20:38;;;;;;;21.98;9.63;;;;;;;;;;6137240;23;20010;-82
2024/03/20 08:23:04;;;;;;;17.05;8.65;;;;;;;;;;6138704;23;20009;-82
2024/03/20 08:25:33;;;;;;;18.88;8.82;;;;;;;;;;6162122;23;20005;-81
2024/03/20 08:27:59;;;;;;;15.70;8.55;;;;;;;;;;6139396;23;20060;-82
2024/03/20 08:30:24;;;;;;;18.67;8.40;;;;;;;;;;6135805;23;20400;-81
2024/03/20 08:32:51;;;;;;;20.80;9.50;;;;;;;;;;6157331;23;20527;-81
2024/03/20 08:35:19;;;;;;;22.52;9.77;;;;;;;;;;6104769;23;20040;-81
2024/03/20 08:37:47;;;;;;;22.85;8.43;;;;;;;;;;6127979;23;20069;-81
2024/03/20 08:40:13;;;;;;;16.02;8.27;;;;;;;;;;6101813;23;20013;-81
2024/03/20 08:42:40;;;;;;;17.63;7.80;;;;;;;;;;6127664;23;20010;-81
2024/03/20 08:45:08;;;;;;;17.45;8.98;;;;;;;;;;6102529;23;20010;-80
2024/03/20 08:47:34;;;;;;;14.40;8.30;;;;;;;;;;6127882;23;20325;-82
2024/03/20 08:50:07;;;;;;;13.98;7.85;;;;;;;;;;6127244;23;20006;-80
2024/03/20 08:52:33;;;;;;;13.50;7.53;;;;;;;;;;6126436;23;20137;-81
2024/03/20 08:55:02;;;;;;;16.38;7.93;;;;;;;;;;6102407;23;20115;-81
2024/03/20 08:57:28;;;;;;;19.50;7.53;;;;;;;;;;6128332;23;20014;-81
2024/03/20 08:59:54;;;;;;;25.40;8.52;;;;;;;;;;6103528;23;20018;-81
2024/03/20 09:02:19;;;;;;;15.50;7.50;;;;;;;;;;6125613;23;20009;-82
2024/03/20 09:04:48;;;;;;;20.13;8.15;;;;;;;;;;6138442;23;20041;-81
2024/03/20 09:07:14;;;;;;;18.23;8.07;;;;;;;;;;6125446;23;20485;-81
2024/03/20 09:09:40;;;;;;;16.92;8.25;;;;;;;;;;6126113;23;20279;-82
2024/03/20 09:12:08;;;;;;;16.70;8.80;;;;;;;;;;6102915;23;20065;-80
2024/03/20 09:14:38;;;;;;;14.90;7.97;;;;;;;;;;6101639;23;20013;-81
2024/03/20 09:17:05;;;;;;;17.17;8.23;;;;;;;;;;6127224;23;20149;-81
2024/03/20 09:19:33;;;;;;;17.92;8.43;;;;;;;;;;6127250;23;20037;-81
2024/03/20 09:21:58;;;;;;;18.60;9.60;;;;;;;;;;6104191;23;20010;-81
2024/03/20 09:24:24;;;;;;;12.82;7.60;;;;;;;;;;6130168;23;20009;-81
2024/03/20 09:26:51;;;;;;;16.92;8.95;;;;;;;;;;6156117;23;20283;-81
2024/03/20 09:29:19;;;;;;;20.60;8.45;;;;;;;;;;6110527;23;20006;-80
2024/03/20 09:31:45;;;;;;;19.98;8.85;;;;;;;;;;6166829;23;20029;-81
2024/03/20 09:34:11;;;;;;;16.40;8.25;;;;;;;;;;6119936;23;20005;-81
2024/03/20 09:36:36;;;;;;;18.15;8.98;;;;;;;;;;6145663;23;20016;-81
2024/03/20 09:39:03;;;;;;;21.45;8.50;;;;;;;;;;6168782;23;20421;-80
2024/03/20 09:41:28;;;;;;;14.88;7.35;;;;;;;;;;6130243;23;20017;-80
2024/03/20 09:43:54;;;;;;;19.52;8.75;;;;;;;;;;6128291;23;20006;-81
2024/03/20 09:46:21;;;;;;;17.70;9.38;;;;;;;;;;6127273;23;20062;-81
2024/03/20 09:48:50;;;;;;;15.63;8.30;;;;;;;;;;6129245;23;20006;-80
2024/03/20 09:51:19;;;;;;;16.48;9.02;;;;;;;;;;6101622;23;20033;-81
2024/03/20 09:53:49;;;;;;;16.75;8.30;;;;;;;;;;6103117;23;20384;-81
2024/03/20 09:56:20;;;;;;;17.85;8.70;;;;;;;;;;6126874;23;20144;-81
2024/03/20 09:58:47;;;;;;;15.48;8.48;;;;;;;;;;6148415;23;20025;-80
2024/03/20 10:01:21;;;;;;;19.52;8.45;;;;;;;;;;6105605;23;20084;-81
2024/03/20 10:03:53;;;;;;;15.00;8.43;;;;;;;;;;6156810;23;20030;-81
2024/03/20 10:06:23;;;;;;;14.07;8.63;;;;;;;;;;6133967;23;20014;-81
2024/03/20 10:08:49;;;;;;;21.85;10.82;;;;;;;;;;6137663;23;20016;-81
2024/03/20 10:11:16;;;;;;;20.00;8.52;;;;;;;;;;6111594;23;20002;-81
2024/03/20 10:13:42;;;;;;;19.20;8.98;;;;;;;;;;6136082;23;20006;-81
2024/03/20 10:16:14;;;;;;;19.38;8.82;;;;;;;;;;6132737;23;20090;-81
2024/03/20 10:18:40;;;;;;;20.38;9.07;;;;;;;;;;6126404;23;20479;-81
2024/03/20 10:21:09;;;;;;;14.95;8.10;;;;;;;;;;6126756;23;20021;-80
2024/03/20 10:23:38;;;;;;;17.23;8.85;;;;;;;;;;6102052;23;20021;-81
2024/03/20 10:26:03;;;;;;;;;;;;;;;;;;6102679;23;20014;-81
2024/03/20 10:28:30;;;;;;;17.63;8.05;;;;;;;;;;6077820;23;19936;-81
2024/03/20 10:31:01;;;;;;;21.40;9.15;;;;;;;;;;6125797;23;20060;-81
2024/03/20 10:33:31;;;;;;;19.23;7.93;;;;;;;;;;6102064;23;20072;-81
2024/03/20 10:35:58;;;;;;;18.92;8.85;;;;;;;;;;6101885;23;20045;-81
2024/03/20 10:38:23;;;;;;;17.52;8.15;;;;;;;;;;6126695;23;20018;-81
2024/03/20 10:40:50;;;;;;;15.57;8.70;;;;;;;;;;6125970;23;20016;-80
2024/03/20 10:43:22;;;;;;;19.58;9.20;;;;;;;;;;6101667;23;20006;-81
2024/03/20 10:45:48;;;;;;;14.48;7.72;;;;;;;;;;6126560;23;20010;-82
2024/03/20 10:48:16;;;;;;;17.48;8.35;;;;;;;;;;6105785;23;20093;-81
2024/03/20 10:50:43;;;;;;;19.45;8.75;;;;;;;;;;6130973;23;20006;-82
2024/03/20 10:53:12;;;;;;;16.65;8.40;;;;;;;;;;6132625;23;20029;-82
2024/03/20 10:55:38;;;;;;;13.25;7.47;;;;;;;;;;6107672;23;20014;-82
2024/03/20 10:58:04;;;;;;;19.55;9.25;;;;;;;;;;6128786;23;20065;-81
2024/03/20 11:00:30;;;;;;;16.52;7.90;;;;;;;;;;6152107;23;20347;-81
2024/03/20 11:02:56;;;;;;;12.07;7.20;;;;;;;;;;6127260;23;20210;-81
2024/03/20 11:05:33;;;;;;;13.50;7.22;;;;;;;;;;6128586;23;20283;-81
2024/03/20 11:08:00;;;;;;;13.38;7.80;;;;;;;;;;6133678;23;20096;-80
2024/03/20 11:10:27;;;;;;;15.73;7.68;;;;;;;;;;6103997;23;20321;-81
2024/03/20 11:12:53;;;;;;;14.82;8.85;;;;;;;;;;6128714;23;20010;-80
2024/03/20 11:15:19;;;;;;;16.60;8.90;;;;;;;;;;6105164;23;20014;-81
2024/03/20 11:17:51;;;;;;;16.55;8.75;;;;;;;;;;6129564;23;20458;-80
2024/03/20 11:20:32;;;;;;;20.58;8.45;;;;;;;;;;6153056;23;20005;-80
2024/03/20 11:22:58;;;;;;;18.33;8.60;;;;;;;;;;6127606;23;20009;-80
2024/03/20 11:25:24;;;;;;;14.85;8.60;;;;;;;;;;6103315;23;20041;-80
2024/03/20 11:27:50;;;;;;;14.25;8.15;;;;;;;;;;6104725;23;20010;-80
2024/03/20 11:30:16;;;;;;;15.82;8.68;;;;;;;;;;6128280;23;20006;-80
2024/03/20 11:32:41;;;;;;;16.63;8.02;;;;;;;;;;6130837;23;20065;-81
2024/03/20 11:35:10;;;;;;;15.15;9.10;;;;;;;;;;6153246;23;20037;-83
2024/03/20 11:37:38;;;;;;;;;;;;;;;;;;6153532;23;20073;-80
2024/03/20 11:40:05;;;;;;;16.60;7.82;;;;;;;;;;6105025;23;19904;-80
2024/03/20 11:42:31;;;;;;;19.65;8.30;;;;;;;;;;6130109;23;20038;-79
2024/03/20 11:44:57;;;;;;;16.60;8.18;;;;;;;;;;6130799;23;20017;-82
2024/03/20 11:47:22;;;;;;;14.50;7.65;;;;;;;;;;6132774;23;20010;-80
2024/03/20 11:49:49;;;;;;;19.05;8.30;;;;;;;;;;6116374;23;20074;-80
2024/03/20 11:52:16;;;;;;;15.10;8.55;;;;;;;;;;6139083;23;20009;-81
2024/03/20 11:54:42;;;;;;;19.13;8.63;;;;;;;;;;6132900;23;20041;-80
2024/03/20 11:57:11;;;;;;;15.10;8.70;;;;;;;;;;6130166;23;20013;-83
2024/03/20 11:59:37;;;;;;;16.98;8.15;;;;;;;;;;6127559;23;20010;-82
2024/03/20 12:02:04;;;;;;;14.88;7.90;;;;;;;;;;6131083;23;20298;-82
2024/03/20 12:04:36;;;;;;;14.45;7.95;;;;;;;;;;6130725;23;20014;-82
2024/03/20 12:07:02;;;;;;;14.02;7.78;;;;;;;;;;6131485;23;20014;-82
2024/03/20 12:09:27;;;;;;;15.30;7.70;;;;;;;;;;6155816;23;20057;-79
2024/03/20 12:11:53;;;;;;;11.00;6.53;;;;;;;;;;6133014;23;20384;-81
2024/03/20 12:14:19;;;;;;;13.55;6.20;;;;;;;;;;6133406;23;20013;-81
2024/03/20 12:16:44;;;;;;;12.40;6.30;;;;;;;;;;6141016;23;20029;-81
2024/03/20 12:19:14;;;;;;;12.65;6.38;;;;;;;;;;6167918;23;20014;-82
2024/03/20 12:21:40;;;;;;;9.32;4.80;;;;;;;;;;6142540;23;20443;-82
2024/03/20 12:24:07;;;;;;;12.15;5.10;;;;;;;;;;6138957;23;20012;-81
2024/03/20 12:26:35;;;;;;;10.25;5.63;;;;;;;;;;6142545;23;20002;-81
2024/03/20 12:29:03;;;;;;;11.13;6.30;;;;;;;;;;6109461;23;20002;-80
2024/03/20 12:31:31;;;;;;;14.48;7.22;;;;;;;;;;6108340;23;20010;-81
2024/03/20 12:33:58;;;;;;;12.82;7.00;;;;;;;;;;6130568;23;20226;-80
2024/03/20 12:36:48;;;;;;;11.05;6.35;;;;;;;;;;6129919;23;20013;-80
2024/03/20 12:39:15;;;;;;;14.80;6.65;;;;;;;;;;6131901;23;20065;-80
2024/03/20 12:41:43;;;;;;;14.43;7.38;;;;;;;;;;6134336;23;20029;-81
2024/03/20 12:44:09;;;;;;;19.05;6.85;;;;;;;;;;6132779;23;20006;-80
2024/03/20 12:46:35;;;;;;;16.20;6.95;;;;;;;;;;6134053;23;20101;-80
2024/03/20 12:49:02;;;;;;;13.32;7.35;;;;;;;;;;6132069;23;20010;-81
2024/03/20 12:51:27;;;;;;;12.23;6.82;;;;;;;;;;6130940;23;20074;-80
2024/03/20 12:53:55;;;;;;;15.45;6.78;;;;;;;;;;6133977;23;20073;-80
2024/03/20 12:56:21;;;;;;;12.82;6.40;;;;;;;;;;6131521;23;20010;-80
2024/03/20 12:58:51;;;;;;;14.20;6.28;;;;;;;;;;6131725;23;20010;-80
2024/03/20 13:01:17;;;;;;;10.60;6.35;;;;;;;;;;6105049;23;20017;-80
2024/03/20 13:03:44;;;;;;;10.32;5.07;;;;;;;;;;6127836;23;20021;-80
2024/03/20 13:06:13;;;;;;;10.80;5.80;;;;;;;;;;6129987;23;20009;-80
2024/03/20 13:08:39;;;;;;;13.13;6.50;;;;;;;;;;6128119;23;20002;-80
2024/03/20 13:11:08;;;;;;;12.82;6.35;;;;;;;;;;6107203;23;20040;-81
2024/03/20 13:13:37;;;;;;;11.07;5.22;;;;;;;;;;6114193;23;20081;-81
2024/03/20 13:16:06;;;;;;;10.30;5.32;;;;;;;;;;6136685;23;20013;-81
2024/03/20 13:18:36;;;;;;;14.40;5.20;;;;;;;;;;6107614;23;20014;-82
2024/03/20 13:21:10;;;;;;;12.50;6.00;;;;;;;;;;6127930;23;20036;-81
2024/03/20 13:23:39;;;;;;;11.25;5.57;;;;;;;;;;6105832;23;20013;-80
2024/03/20 13:26:05;;;;;;;;;;;;;;;;;;6128657;23;20460;-81
2024/03/20 13:28:31;;;;;;;15.73;6.95;;;;;;;;;;6104979;23;19905;-81
2024/03/20 13:31:09;;;;;;;13.23;6.53;;;;;;;;;;6105991;23;20017;-81
2024/03/20 13:33:35;;;;;;;15.32;8.00;;;;;;;;;;6107138;23;20018;-81
2024/03/20 13:36:08;;;;;;;16.25;6.30;;;;;;;;;;6132395;23;20029;-80
2024/03/20 13:38:38;;;;;;;12.70;6.38;;;;;;;;;;6087681;23;20138;-80
2024/03/20 13:43:53;;;;;;;15.40;7.15;;;;;;;;;;6079112;23;20085;-83
2024/03/20 13:46:19;;;;;;;14.63;7.47;;;;;;;;;;6054100;23;20444;-83
2024/03/20 13:48:45;;;;;;;11.25;6.85;;;;;;;;;;6051482;23;20137;-82
2024/03/20 13:51:14;;;;;;;13.55;7.63;;;;;;;;;;6051562;23;20325;-82
2024/03/20 13:53:39;;;;;;;12.30;7.07;;;;;;;;;;6053214;23;20006;-83
2024/03/20 13:56:11;;;;;;;18.10;6.90;;;;;;;;;;6100326;23;20021;-84
2024/03/20 13:58:37;;;;;;;14.40;7.68;;;;;;;;;;6076719;23;20030;-84
2024/03/20 14:01:04;;;;;;;15.10;7.03;;;;;;;;;;6051882;23;20014;-84
2024/03/20 14:03:29;;;;;;;13.55;7.18;;;;;;;;;;6098643;23;20029;-84
2024/03/20 14:05:55;;;;;;;15.13;6.85;;;;;;;;;;6050589;23;20405;-83
2024/03/20 14:08:20;;;;;;;13.15;8.00;;;;;;;;;;6050351;23;20010;-82
2024/03/20 14:10:46;;;;;;;13.80;7.15;;;;;;;;;;6073976;23;20003;-84
2024/03/20 14:13:14;;;;;;;20.58;7.45;;;;;;;;;;6049053;23;20102;-83
2024/03/20 14:15:40;;;;;;;13.20;7.50;;;;;;;;;;6050403;23;20010;-83
2024/03/20 14:18:07;;;;;;;12.98;7.13;;;;;;;;;;6075652;23;20073;-83
2024/03/20 14:20:32;;;;;;;12.85;6.75;;;;;;;;;;6075792;23;20033;-80
2024/03/20 14:22:58;;;;;;;16.40;6.85;;;;;;;;;;6049481;23;20038;-82
2024/03/20 14:25:24;;;;;;;11.90;6.63;;;;;;;;;;6049386;23;20010;-82
2024/03/20 14:27:49;;;;;;;15.68;6.70;;;;;;;;;;6053728;23;20097;-83
2024/03/20 14:30:18;;;;;;;12.23;6.68;;;;;;;;;;6055013;23;20010;-84
2024/03/20 14:32:46;;;;;;;;;;;;;;;;;;6077310;23;20106;-84
2024/03/20 14:35:12;;;;;;;12.98;6.63;;;;;;;;;;6075356;23;20320;-81
2024/03/20 14:37:45;;;;;;;14.68;7.30;;;;;;;;;;6101269;23;20021;-80
2024/03/20 14:40:12;;;;;;;15.68;6.93;;;;;;;;;;6142364;23;20006;-81
2024/03/20 14:42:41;;;;;;;14.70;6.88;;;;;;;;;;6059701;23;20072;-81
2024/03/20 14:45:10;;;;;;;16.02;8.10;;;;;;;;;;6105619;23;20014;-81
2024/03/20 14:47:37;;;;;;;13.23;7.20;;;;;;;;;;6107944;23;20028;-80
2024/03/20 14:50:03;;;;;;;14.95;8.38;;;;;;;;;;6084647;23;20089;-82
2024/03/20 14:52:30;;;;;;;16.73;7.93;;;;;;;;;;6084714;23;20006;-81
2024/03/20 14:54:58;;;;;;;15.60;7.50;;;;;;;;;;6065232;23;20006;-81
2024/03/20 14:57:24;;;;;;;11.80;7.40;;;;;;;;;;6115579;23;20006;-80
2024/03/20 14:59:52;;;;;;;12.87;7.10;;;;;;;;;;6097474;23;20328;-80
2024/03/20 15:02:17;;;;;;;14.07;7.30;;;;;;;;;;6143600;23;20232;-80
2024/03/20 15:04:43;;;;;;;15.88;7.55;;;;;;;;;;6090952;23;20017;-79